CA-0281 weather

CLOSED Pelly Bay (DEW Site) Airport
Pelly Bay, Nunavut, Canada

Public forecast

Using degrees Celsius for public forecast. Weather courtesy of forecast.io.

Closest aviation weather report (METAR) to Pelly Bay (DEW Site) Airport

Closest report is Kugaaruk Airport, 7.4 nm (13.6 km) NW. Retrieved 2020/07/02 22:00 UTC (52 minutes ago):

CYBB 022200Z 01008KT 15SM FEW020 FEW100 FEW200 16/09 A3029 RMK SC1AC1CI2 SC TR AC TR SLP261

Closest aviation forecast (TAF) to Pelly Bay (DEW Site) Airport

Closest forecast is Kugaaruk Airport, 7.4 nm (13.6 km) NW. Retrieved 2020/07/02 19:00 UTC (4 hours ago):

TAF CYBB 021838Z 0219/0223 22007KT P6SM FEW020 RMK NXT FCST WILL BE ISSUED AT 031345Z